PWSweather.com
Personal Weather Stations
Station Observations
SUBOTICARS
SuboticaYU

SuboticaYU

Lat: 46.1296717, Lon: 19.641551

Elevation: 361

Station Type: Nexus

http://sumeteo.info

High Low Average
Temperature 40.6°F4.8°C 26.6°F-3.0°C 33.9°F1.1°C
Dew Point 32.9°F0.5°C 23.5°F-4.7°C 29.4°F-1.4°C
Winds 6.9 mph 11.1 kmh Calm Calm 4.0 mph W6.4 kmh W
Wind Gusts 10.4 mph16.7 kmh -- 5.0 mph8.0 kmh
Humidity 92% 67% 84%
Pressure 30.07 in1018.3 mb 29.68 in1005.1 mb -
Precipitation 0.02 in0.5 mm - -
Hour Temp Dew Point Humidity Winds Wind Gusts Pressure Precip Precip Rate Daily Precip Total
12:00 AM 31.3°F-0.4°C 27.0°F-2.8°C 84% 1.2 mph NNW1.9 kmh NNW 1.2 mph1.9 kmh 30.05 in1017.6 mb - 0.00 in0.0 mm 0.00 in0.0 mm
12:10 AM 31.0°F-0.6°C 27.3°F-2.6°C 86% 2.3 mph NNW3.7 kmh NNW 2.3 mph3.7 kmh 30.05 in1017.6 mb - 0.00 in0.0 mm 0.00 in0.0 mm
12:15 AM 30.8°F-0.7°C 27.2°F-2.7°C 86% 1.2 mph NNW1.9 kmh NNW 1.2 mph1.9 kmh 30.05 in1017.6 mb - 0.00 in0.0 mm 0.00 in0.0 mm
12:20 AM 31.0°F-0.6°C 27.3°F-2.6°C 86% 2.3 mph NNW3.7 kmh NNW 2.3 mph3.7 kmh 30.06 in1017.9 mb - 0.00 in0.0 mm 0.00 in0.0 mm
12:25 AM 31.5°F-0.3°C 28.3°F-2.1°C 88% 2.3 mph N3.7 kmh N 3.5 mph5.6 kmh 30.06 in1017.9 mb - 0.00 in0.0 mm 0.00 in0.0 mm
12:30 AM 31.6°F-0.2°C 28.8°F-1.8°C 89% 2.3 mph NNW3.7 kmh NNW 2.3 mph3.7 kmh 30.06 in1017.9 mb - 0.00 in0.0 mm 0.00 in0.0 mm
12:35 AM 31.6°F-0.2°C 29.0°F-1.7°C 90% 2.3 mph NNW3.7 kmh NNW 3.5 mph5.6 kmh 30.06 in1017.9 mb - 0.00 in0.0 mm 0.00 in0.0 mm
12:40 AM 31.3°F-0.4°C 28.7°F-1.8°C 90% 2.3 mph N3.7 kmh N 3.5 mph5.6 kmh 30.06 in1017.9 mb - 0.00 in0.0 mm 0.00 in0.0 mm
12:45 AM 31.2°F-0.4°C 28.6°F-1.9°C 90% 2.3 mph NNW3.7 kmh NNW 2.3 mph3.7 kmh 30.06 in1017.9 mb - 0.00 in0.0 mm 0.00 in0.0 mm
12:50 AM 31.1°F-0.5°C 28.3°F-2.1°C 89% 2.3 mph NNW3.7 kmh NNW 3.5 mph5.6 kmh 30.06 in1017.9 mb - 0.00 in0.0 mm 0.00 in0.0 mm
12:55 AM 31.3°F-0.4°C 28.7°F-1.8°C 90% 3.5 mph NNW5.6 kmh NNW 3.5 mph5.6 kmh 30.06 in1017.9 mb - 0.00 in0.0 mm 0.00 in0.0 mm
01:00 AM 31.3°F-0.4°C 28.7°F-1.8°C 90% 2.3 mph NNW3.7 kmh NNW 3.5 mph5.6 kmh 30.06 in1017.9 mb - 0.00 in0.0 mm 0.00 in0.0 mm
01:10 AM 31.0°F-0.6°C 28.4°F-2.0°C 90% 3.5 mph N5.6 kmh N 3.5 mph5.6 kmh 30.06 in1017.9 mb - 0.00 in0.0 mm 0.00 in0.0 mm
01:15 AM 31.0°F-0.6°C 28.4°F-2.0°C 90% 2.3 mph NNW3.7 kmh NNW 3.5 mph5.6 kmh 30.06 in1017.9 mb - 0.00 in0.0 mm 0.00 in0.0 mm
01:20 AM 30.7°F-0.7°C 28.2°F-2.1°C 90% 2.3 mph NNW3.7 kmh NNW 2.3 mph3.7 kmh 30.06 in1017.9 mb - 0.00 in0.0 mm 0.00 in0.0 mm
01:25 AM 30.9°F-0.6°C 28.3°F-2.1°C 90% 3.5 mph NNW5.6 kmh NNW 3.5 mph5.6 kmh 30.06 in1017.9 mb - 0.00 in0.0 mm 0.00 in0.0 mm
01:30 AM 30.6°F-0.8°C 28.0°F-2.2°C 90% 3.5 mph NNW5.6 kmh NNW 3.5 mph5.6 kmh 30.07 in1018.3 mb - 0.00 in0.0 mm 0.00 in0.0 mm
01:35 AM 30.6°F-0.8°C 28.0°F-2.2°C 90% 2.3 mph NNW3.7 kmh NNW 2.3 mph3.7 kmh 30.07 in1018.3 mb - 0.00 in0.0 mm 0.00 in0.0 mm
01:40 AM 30.4°F-0.9°C 27.8°F-2.3°C 90% 2.3 mph NNW3.7 kmh NNW 3.5 mph5.6 kmh 30.07 in1018.3 mb - 0.00 in0.0 mm 0.00 in0.0 mm
01:45 AM 30.3°F-0.9°C 27.7°F-2.4°C 90% 2.3 mph NNW3.7 kmh NNW 3.5 mph5.6 kmh 30.07 in1018.3 mb - 0.00 in0.0 mm 0.00 in0.0 mm
01:50 AM 30.2°F-1.0°C 27.6°F-2.4°C 90% 2.3 mph NNW3.7 kmh NNW 2.3 mph3.7 kmh 30.07 in1018.3 mb - 0.00 in0.0 mm 0.00 in0.0 mm
01:55 AM 30.2°F-1.0°C 27.6°F-2.4°C 90% 3.5 mph NNW5.6 kmh NNW 3.5 mph5.6 kmh 30.07 in1018.3 mb - 0.00 in0.0 mm 0.00 in0.0 mm
02:00 AM 30.2°F-1.0°C 27.6°F-2.4°C 90% 2.3 mph NNW3.7 kmh NNW 2.3 mph3.7 kmh 30.07 in1018.3 mb - 0.00 in0.0 mm 0.00 in0.0 mm
02:10 AM 30.4°F-0.9°C 27.8°F-2.3°C 90% 3.5 mph NNW5.6 kmh NNW 3.5 mph5.6 kmh 30.07 in1018.3 mb - 0.00 in0.0 mm 0.00 in0.0 mm
02:15 AM 30.4°F-0.9°C 27.8°F-2.3°C 90% 2.3 mph NNW3.7 kmh NNW 2.3 mph3.7 kmh 30.07 in1018.3 mb - 0.00 in0.0 mm 0.00 in0.0 mm
02:20 AM 30.4°F-0.9°C 27.8°F-2.3°C 90% 3.5 mph NNW5.6 kmh NNW 3.5 mph5.6 kmh 30.07 in1018.3 mb - 0.00 in0.0 mm 0.00 in0.0 mm
02:25 AM 30.2°F-1.0°C 27.6°F-2.4°C 90% 2.3 mph NNW3.7 kmh NNW 2.3 mph3.7 kmh 30.07 in1018.3 mb - 0.00 in0.0 mm 0.00 in0.0 mm
02:30 AM 30.2°F-1.0°C 27.6°F-2.4°C 90% 3.5 mph NW5.6 kmh NW 3.5 mph5.6 kmh 30.07 in1018.3 mb - 0.00 in0.0 mm 0.00 in0.0 mm
02:35 AM 30.0°F-1.1°C 27.4°F-2.6°C 90% 3.5 mph NNW5.6 kmh NNW 3.5 mph5.6 kmh 30.07 in1018.3 mb - 0.00 in0.0 mm 0.00 in0.0 mm
02:40 AM 30.0°F-1.1°C 27.4°F-2.6°C 90% 3.5 mph NNW5.6 kmh NNW 3.5 mph5.6 kmh 30.07 in1018.3 mb - 0.00 in0.0 mm 0.00 in0.0 mm
02:45 AM 30.0°F-1.1°C 27.4°F-2.6°C 90% 3.5 mph NNW5.6 kmh NNW 3.5 mph5.6 kmh 30.07 in1018.3 mb - 0.00 in0.0 mm 0.00 in0.0 mm
02:50 AM 30.0°F-1.1°C 27.4°F-2.6°C 90% 3.5 mph NNW5.6 kmh NNW 3.5 mph5.6 kmh 30.07 in1018.3 mb - 0.00 in0.0 mm 0.00 in0.0 mm
02:55 AM 29.8°F-1.2°C 27.3°F-2.6°C 90% 3.5 mph NW5.6 kmh NW 4.6 mph7.4 kmh 30.07 in1018.3 mb - 0.00 in0.0 mm 0.00 in0.0 mm
03:00 AM 30.0°F-1.1°C 27.4°F-2.6°C 90% 3.5 mph NNW5.6 kmh NNW 4.6 mph7.4 kmh 30.07 in1018.3 mb - 0.00 in0.0 mm 0.00 in0.0 mm
03:10 AM 29.9°F-1.2°C 27.6°F-2.4°C 91% 3.5 mph NNW5.6 kmh NNW 3.5 mph5.6 kmh 30.07 in1018.3 mb - 0.00 in0.0 mm 0.00 in0.0 mm
03:15 AM 29.8°F-1.2°C 27.5°F-2.5°C 91% 3.5 mph NW5.6 kmh NW 5.8 mph9.3 kmh 30.07 in1018.3 mb - 0.00 in0.0 mm 0.00 in0.0 mm
03:20 AM 30.0°F-1.1°C 27.7°F-2.4°C 91% 4.6 mph NNW7.4 kmh NNW 3.5 mph5.6 kmh 30.07 in1018.3 mb - 0.00 in0.0 mm 0.00 in0.0 mm
03:25 AM 29.8°F-1.2°C 27.5°F-2.5°C 91% 4.6 mph NNW7.4 kmh NNW 5.8 mph9.3 kmh 30.07 in1018.3 mb - 0.00 in0.0 mm 0.00 in0.0 mm
03:30 AM 30.0°F-1.1°C 28.0°F-2.2°C 92% 4.6 mph NNW7.4 kmh NNW 5.8 mph9.3 kmh 30.07 in1018.3 mb - 0.00 in0.0 mm 0.00 in0.0 mm
03:35 AM 30.2°F-1.0°C 28.1°F-2.2°C 92% 4.6 mph NNW7.4 kmh NNW 4.6 mph7.4 kmh 30.06 in1017.9 mb - 0.00 in0.0 mm 0.00 in0.0 mm
03:40 AM 30.0°F-1.1°C 28.0°F-2.2°C 92% 3.5 mph NW5.6 kmh NW 4.6 mph7.4 kmh 30.06 in1017.9 mb - 0.00 in0.0 mm 0.00 in0.0 mm
03:45 AM 30.2°F-1.0°C 28.1°F-2.2°C 92% 3.5 mph NNW5.6 kmh NNW 3.5 mph5.6 kmh 30.06 in1017.9 mb - 0.00 in0.0 mm 0.00 in0.0 mm
03:50 AM 30.2°F-1.0°C 28.2°F-2.1°C 92% 4.6 mph WNW7.4 kmh WNW 4.6 mph7.4 kmh 30.05 in1017.6 mb - 0.00 in0.0 mm 0.00 in0.0 mm
03:55 AM 30.0°F-1.1°C 28.0°F-2.2°C 92% 2.3 mph NW3.7 kmh NW 2.3 mph3.7 kmh 30.05 in1017.6 mb - 0.00 in0.0 mm 0.00 in0.0 mm
04:00 AM 29.8°F-1.2°C 27.8°F-2.3°C 92% 2.3 mph NNW3.7 kmh NNW 2.3 mph3.7 kmh 30.05 in1017.6 mb - 0.00 in0.0 mm 0.00 in0.0 mm
04:10 AM 29.9°F-1.2°C 27.9°F-2.3°C 92% 3.5 mph NNW5.6 kmh NNW 3.5 mph5.6 kmh 30.05 in1017.6 mb - 0.00 in0.0 mm 0.00 in0.0 mm
04:15 AM 29.8°F-1.2°C 27.8°F-2.3°C 92% 3.5 mph NNW5.6 kmh NNW 3.5 mph5.6 kmh 30.05 in1017.6 mb - 0.00 in0.0 mm 0.00 in0.0 mm
04:20 AM 29.8°F-1.2°C 27.8°F-2.3°C 92% 3.5 mph NNW5.6 kmh NNW 3.5 mph5.6 kmh 30.05 in1017.6 mb - 0.00 in0.0 mm 0.00 in0.0 mm
04:25 AM 29.7°F-1.3°C 27.6°F-2.4°C 92% 3.5 mph NNW5.6 kmh NNW 3.5 mph5.6 kmh 30.05 in1017.6 mb - 0.00 in0.0 mm 0.00 in0.0 mm
04:30 AM 29.7°F-1.3°C 27.6°F-2.4°C 92% 2.3 mph NNW3.7 kmh NNW 3.5 mph5.6 kmh 30.05 in1017.6 mb - 0.00 in0.0 mm 0.00 in0.0 mm
04:35 AM 29.7°F-1.3°C 27.4°F-2.6°C 91% 2.3 mph NNW3.7 kmh NNW 3.5 mph5.6 kmh 30.05 in1017.6 mb - 0.00 in0.0 mm 0.00 in0.0 mm
04:40 AM 29.4°F-1.4°C 27.1°F-2.7°C 91% 2.3 mph NNW3.7 kmh NNW 2.3 mph3.7 kmh 30.05 in1017.6 mb - 0.00 in0.0 mm 0.00 in0.0 mm
04:45 AM 29.3°F-1.5°C 27.0°F-2.8°C 91% 2.3 mph NNW3.7 kmh NNW 2.3 mph3.7 kmh 30.05 in1017.6 mb - 0.00 in0.0 mm 0.00 in0.0 mm
04:50 AM 29.3°F-1.5°C 27.0°F-2.8°C 91% 2.3 mph NNW3.7 kmh NNW 3.5 mph5.6 kmh 30.05 in1017.6 mb - 0.00 in0.0 mm 0.00 in0.0 mm
04:55 AM 29.3°F-1.5°C 27.0°F-2.8°C 91% 3.5 mph NNW5.6 kmh NNW 3.5 mph5.6 kmh 30.05 in1017.6 mb - 0.00 in0.0 mm 0.00 in0.0 mm
05:00 AM 29.3°F-1.5°C 27.0°F-2.8°C 91% 2.3 mph NW3.7 kmh NW 3.5 mph5.6 kmh 30.05 in1017.6 mb - 0.00 in0.0 mm 0.00 in0.0 mm
05:10 AM 29.2°F-1.6°C 26.9°F-2.8°C 91% 3.5 mph NNW5.6 kmh NNW 3.5 mph5.6 kmh 30.06 in1017.9 mb - 0.00 in0.0 mm 0.00 in0.0 mm
05:15 AM 29.1°F-1.6°C 26.8°F-2.9°C 91% 3.5 mph NNW5.6 kmh NNW 4.6 mph7.4 kmh 30.05 in1017.6 mb - 0.00 in0.0 mm 0.00 in0.0 mm
05:20 AM 29.1°F-1.6°C 26.8°F-2.9°C 91% 3.5 mph NNW5.6 kmh NNW 3.5 mph5.6 kmh 30.05 in1017.6 mb - 0.00 in0.0 mm 0.00 in0.0 mm
05:25 AM 29.1°F-1.6°C 26.8°F-2.9°C 91% 2.3 mph NNW3.7 kmh NNW 3.5 mph5.6 kmh 30.05 in1017.6 mb - 0.00 in0.0 mm 0.00 in0.0 mm
05:30 AM 29.0°F-1.7°C 26.7°F-2.9°C 91% 2.3 mph NNW3.7 kmh NNW 3.5 mph5.6 kmh 30.05 in1017.6 mb - 0.00 in0.0 mm 0.00 in0.0 mm
05:35 AM 29.1°F-1.6°C 26.8°F-2.9°C 91% 3.5 mph NNW5.6 kmh NNW 3.5 mph5.6 kmh 30.05 in1017.6 mb - 0.00 in0.0 mm 0.00 in0.0 mm
05:40 AM 28.9°F-1.7°C 26.6°F-3.0°C 91% 3.5 mph NNW5.6 kmh NNW 3.5 mph5.6 kmh 30.05 in1017.6 mb - 0.00 in0.0 mm 0.00 in0.0 mm
05:45 AM 28.9°F-1.7°C 26.6°F-3.0°C 91% 3.5 mph NNW5.6 kmh NNW 3.5 mph5.6 kmh 30.05 in1017.6 mb - 0.00 in0.0 mm 0.00 in0.0 mm
05:50 AM 29.1°F-1.6°C 26.8°F-2.9°C 91% 3.5 mph NW5.6 kmh NW 3.5 mph5.6 kmh 30.04 in1017.3 mb - 0.00 in0.0 mm 0.00 in0.0 mm
05:55 AM 28.9°F-1.7°C 26.6°F-3.0°C 91% 3.5 mph NNW5.6 kmh NNW 3.5 mph5.6 kmh 30.04 in1017.3 mb - 0.00 in0.0 mm 0.00 in0.0 mm
06:00 AM 28.9°F-1.7°C 26.6°F-3.0°C 91% 3.5 mph NNW5.6 kmh NNW 3.5 mph5.6 kmh 30.04 in1017.3 mb - 0.00 in0.0 mm 0.00 in0.0 mm
06:10 AM 28.8°F-1.8°C 26.5°F-3.1°C 91% 3.5 mph NNW5.6 kmh NNW 3.5 mph5.6 kmh 30.04 in1017.3 mb - 0.00 in0.0 mm 0.00 in0.0 mm
06:15 AM 28.6°F-1.9°C 26.3°F-3.2°C 91% 2.3 mph NW3.7 kmh NW 3.5 mph5.6 kmh 30.04 in1017.3 mb - 0.00 in0.0 mm 0.00 in0.0 mm
06:20 AM 28.4°F-2.0°C 26.4°F-3.1°C 92% 2.3 mph NNW3.7 kmh NNW 3.5 mph5.6 kmh 30.04 in1017.3 mb - 0.00 in0.0 mm 0.00 in0.0 mm
06:25 AM 28.2°F-2.1°C 25.9°F-3.4°C 91% 2.3 mph NNW3.7 kmh NNW 2.3 mph3.7 kmh 30.04 in1017.3 mb - 0.00 in0.0 mm 0.00 in0.0 mm
06:30 AM 28.4°F-2.0°C 26.1°F-3.3°C 91% 3.5 mph NW5.6 kmh NW 3.5 mph5.6 kmh 30.05 in1017.6 mb - 0.00 in0.0 mm 0.00 in0.0 mm
06:35 AM 28.1°F-2.2°C 25.8°F-3.4°C 91% 1.2 mph NNW1.9 kmh NNW 2.3 mph3.7 kmh 30.05 in1017.6 mb - 0.00 in0.0 mm 0.00 in0.0 mm
06:40 AM 28.0°F-2.2°C 25.7°F-3.5°C 91% 2.3 mph NNW3.7 kmh NNW 2.3 mph3.7 kmh 30.05 in1017.6 mb - 0.00 in0.0 mm 0.00 in0.0 mm
06:45 AM 27.9°F-2.3°C 25.3°F-3.7°C 90% Calm Calm -- 30.05 in1017.6 mb - 0.00 in0.0 mm 0.00 in0.0 mm
06:50 AM 27.7°F-2.4°C 25.1°F-3.8°C 90% Calm Calm -- 30.04 in1017.3 mb - 0.00 in0.0 mm 0.00 in0.0 mm
06:55 AM 27.7°F-2.4°C 25.1°F-3.8°C 90% Calm Calm -- 30.04 in1017.3 mb - 0.00 in0.0 mm 0.00 in0.0 mm
07:00 AM 27.5°F-2.5°C 24.7°F-4.1°C 89% Calm Calm -- 30.04 in1017.3 mb - 0.00 in0.0 mm 0.00 in0.0 mm
07:10 AM 27.1°F-2.7°C 24.3°F-4.3°C 89% 1.2 mph NNW1.9 kmh NNW 1.2 mph1.9 kmh 30.04 in1017.3 mb - 0.00 in0.0 mm 0.00 in0.0 mm
07:15 AM 27.0°F-2.8°C 24.2°F-4.3°C 89% 1.2 mph NNW1.9 kmh NNW 1.2 mph1.9 kmh 30.04 in1017.3 mb - 0.00 in0.0 mm 0.00 in0.0 mm
07:20 AM 27.0°F-2.8°C 24.2°F-4.3°C 89% Calm Calm -- 30.04 in1017.3 mb - 0.00 in0.0 mm 0.00 in0.0 mm
07:25 AM 27.0°F-2.8°C 23.9°F-4.5°C 88% Calm Calm -- 30.04 in1017.3 mb - 0.00 in0.0 mm 0.00 in0.0 mm
07:30 AM 26.8°F-2.9°C 23.7°F-4.6°C 88% Calm Calm 1.2 mph1.9 kmh 30.04 in1017.3 mb - 0.00 in0.0 mm 0.00 in0.0 mm
07:35 AM 26.8°F-2.9°C 23.7°F-4.6°C 88% Calm Calm -- 30.04 in1017.3 mb - 0.00 in0.0 mm 0.00 in0.0 mm
07:40 AM 26.8°F-2.9°C 23.7°F-4.6°C 88% Calm Calm -- 30.04 in1017.3 mb - 0.00 in0.0 mm 0.00 in0.0 mm
07:45 AM 26.6°F-3.0°C 23.5°F-4.7°C 88% Calm Calm -- 30.04 in1017.3 mb - 0.00 in0.0 mm 0.00 in0.0 mm
07:50 AM 26.8°F-2.9°C 23.7°F-4.6°C 88% Calm Calm -- 30.04 in1017.3 mb - 0.00 in0.0 mm 0.00 in0.0 mm
07:55 AM 26.8°F-2.9°C 23.7°F-4.6°C 88% Calm Calm 1.2 mph1.9 kmh 30.04 in1017.3 mb - 0.00 in0.0 mm 0.00 in0.0 mm
08:00 AM 26.8°F-2.9°C 23.7°F-4.6°C 88% Calm Calm 2.3 mph3.7 kmh 30.04 in1017.3 mb - 0.00 in0.0 mm 0.00 in0.0 mm
08:10 AM 27.0°F-2.8°C 23.9°F-4.5°C 88% Calm Calm -- 30.04 in1017.3 mb - 0.00 in0.0 mm 0.00 in0.0 mm
08:15 AM 27.1°F-2.7°C 24.1°F-4.4°C 88% Calm Calm -- 30.04 in1017.3 mb - 0.00 in0.0 mm 0.00 in0.0 mm
08:20 AM 27.1°F-2.7°C 24.1°F-4.4°C 88% 1.2 mph NNW1.9 kmh NNW 1.2 mph1.9 kmh 30.04 in1017.3 mb - 0.00 in0.0 mm 0.00 in0.0 mm
08:25 AM 27.1°F-2.7°C 24.1°F-4.4°C 88% 1.2 mph NNW1.9 kmh NNW 1.2 mph1.9 kmh 30.04 in1017.3 mb - 0.00 in0.0 mm 0.00 in0.0 mm
08:30 AM 27.3°F-2.6°C 24.2°F-4.3°C 88% 1.2 mph NNW1.9 kmh NNW 1.2 mph1.9 kmh 30.04 in1017.3 mb - 0.00 in0.0 mm 0.00 in0.0 mm
08:35 AM 27.6°F-2.4°C 24.5°F-4.2°C 88% 1.2 mph NNW1.9 kmh NNW 1.2 mph1.9 kmh 30.04 in1017.3 mb - 0.00 in0.0 mm 0.00 in0.0 mm
08:40 AM 27.9°F-2.3°C 24.8°F-4.0°C 88% 1.2 mph NNW1.9 kmh NNW 2.3 mph3.7 kmh 30.04 in1017.3 mb - 0.00 in0.0 mm 0.00 in0.0 mm
08:45 AM 28.4°F-2.0°C 25.6°F-3.6°C 89% 2.3 mph NNW3.7 kmh NNW 2.3 mph3.7 kmh 30.04 in1017.3 mb - 0.00 in0.0 mm 0.00 in0.0 mm
08:50 AM 28.8°F-1.8°C 25.9°F-3.4°C 89% 2.3 mph NNW3.7 kmh NNW 2.3 mph3.7 kmh 30.04 in1017.3 mb - 0.00 in0.0 mm 0.00 in0.0 mm
08:55 AM 29.1°F-1.6°C 26.3°F-3.2°C 89% 1.2 mph NNW1.9 kmh NNW 1.2 mph1.9 kmh 30.04 in1017.3 mb - 0.00 in0.0 mm 0.00 in0.0 mm
09:00 AM 29.4°F-1.4°C 26.6°F-3.0°C 89% 1.2 mph NNW1.9 kmh NNW 2.3 mph3.7 kmh 30.04 in1017.3 mb - 0.00 in0.0 mm 0.00 in0.0 mm
09:10 AM 30.2°F-1.0°C 27.3°F-2.6°C 89% 1.2 mph NNW1.9 kmh NNW -- 30.04 in1017.3 mb - 0.00 in0.0 mm 0.00 in0.0 mm
09:15 AM 30.6°F-0.8°C 27.7°F-2.4°C 89% 1.2 mph NNW1.9 kmh NNW 2.3 mph3.7 kmh 30.03 in1016.9 mb - 0.00 in0.0 mm 0.00 in0.0 mm
09:20 AM 30.7°F-0.7°C 27.9°F-2.3°C 89% 2.3 mph NW3.7 kmh NW 2.3 mph3.7 kmh 30.02 in1016.6 mb - 0.00 in0.0 mm 0.00 in0.0 mm
09:25 AM 31.1°F-0.5°C 28.2°F-2.1°C 89% 2.3 mph WSW3.7 kmh WSW 3.5 mph5.6 kmh 30.02 in1016.6 mb - 0.00 in0.0 mm 0.00 in0.0 mm
09:30 AM 31.4°F-0.3°C 28.5°F-1.9°C 89% 2.3 mph SW3.7 kmh SW 2.3 mph3.7 kmh 30.02 in1016.6 mb - 0.00 in0.0 mm 0.00 in0.0 mm
09:35 AM 31.6°F-0.2°C 28.8°F-1.8°C 89% 2.3 mph SW3.7 kmh SW 2.3 mph3.7 kmh 30.02 in1016.6 mb - 0.00 in0.0 mm 0.00 in0.0 mm
09:40 AM 31.8°F-0.1°C 29.0°F-1.7°C 89% 2.3 mph WNW3.7 kmh WNW 2.3 mph3.7 kmh 30.02 in1016.6 mb - 0.00 in0.0 mm 0.00 in0.0 mm
09:45 AM 32.2°F0.1°C 29.3°F-1.5°C 89% 2.3 mph WNW3.7 kmh WNW 2.3 mph3.7 kmh 30.02 in1016.6 mb - 0.00 in0.0 mm 0.00 in0.0 mm
09:50 AM 32.5°F0.3°C 29.9°F-1.2°C 90% 2.3 mph SW3.7 kmh SW 2.3 mph3.7 kmh 30.02 in1016.6 mb - 0.00 in0.0 mm 0.00 in0.0 mm
09:55 AM 32.7°F0.4°C 29.8°F-1.2°C 89% 2.3 mph WNW3.7 kmh WNW 3.5 mph5.6 kmh 30.02 in1016.6 mb - 0.00 in0.0 mm 0.00 in0.0 mm
10:00 AM 33.0°F0.6°C 30.1°F-1.1°C 89% 2.3 mph W3.7 kmh W 3.5 mph5.6 kmh 30.02 in1016.6 mb - 0.00 in0.0 mm 0.00 in0.0 mm
10:10 AM 33.6°F0.9°C 30.7°F-0.7°C 89% 3.5 mph WNW5.6 kmh WNW 4.6 mph7.4 kmh 30.03 in1016.9 mb - 0.00 in0.0 mm 0.00 in0.0 mm
10:15 AM 34.2°F1.2°C 31.3°F-0.4°C 89% 3.5 mph W5.6 kmh W 3.5 mph5.6 kmh 30.02 in1016.6 mb - 0.00 in0.0 mm 0.00 in0.0 mm
10:20 AM 34.7°F1.5°C 31.8°F-0.1°C 89% 3.5 mph WNW5.6 kmh WNW 3.5 mph5.6 kmh 30.02 in1016.6 mb - 0.00 in0.0 mm 0.00 in0.0 mm
10:25 AM 34.9°F1.6°C 32.0°F0.0°C 89% 3.5 mph WNW5.6 kmh WNW 3.5 mph5.6 kmh 30.02 in1016.6 mb - 0.00 in0.0 mm 0.00 in0.0 mm
10:30 AM 35.0°F1.7°C 31.8°F-0.1°C 88% 3.5 mph W5.6 kmh W 4.6 mph7.4 kmh 30.02 in1016.6 mb - 0.00 in0.0 mm 0.00 in0.0 mm
10:35 AM 35.4°F1.9°C 32.2°F0.1°C 88% 3.5 mph WNW5.6 kmh WNW 3.5 mph5.6 kmh 30.01 in1016.3 mb - 0.00 in0.0 mm 0.00 in0.0 mm
10:40 AM 35.8°F2.1°C 32.6°F0.3°C 88% 2.3 mph W3.7 kmh W 3.5 mph5.6 kmh 30.01 in1016.3 mb - 0.00 in0.0 mm 0.00 in0.0 mm
10:45 AM 36.0°F2.2°C 32.5°F0.3°C 87% 3.5 mph WNW5.6 kmh WNW 4.6 mph7.4 kmh 30.01 in1016.3 mb - 0.00 in0.0 mm 0.00 in0.0 mm
10:50 AM 36.3°F2.4°C 32.5°F0.3°C 86% 2.3 mph WNW3.7 kmh WNW 3.5 mph5.6 kmh 30.01 in1016.3 mb - 0.00 in0.0 mm 0.00 in0.0 mm
10:55 AM 36.7°F2.6°C 32.3°F0.2°C 84% 4.6 mph NW7.4 kmh NW 4.6 mph7.4 kmh 30.01 in1016.3 mb - 0.00 in0.0 mm 0.00 in0.0 mm
11:00 AM 36.7°F2.6°C 32.3°F0.2°C 84% 3.5 mph WNW5.6 kmh WNW 5.8 mph9.3 kmh 30.01 in1016.3 mb - 0.00 in0.0 mm 0.00 in0.0 mm
11:10 AM 37.2°F2.9°C 32.8°F0.4°C 84% 3.5 mph WNW5.6 kmh WNW 3.5 mph5.6 kmh 30.00 in1015.9 mb - 0.00 in0.0 mm 0.00 in0.0 mm
11:15 AM 37.2°F2.9°C 32.5°F0.3°C 83% 3.5 mph WNW5.6 kmh WNW 3.5 mph5.6 kmh 30.00 in1015.9 mb - 0.00 in0.0 mm 0.00 in0.0 mm
11:20 AM 37.6°F3.1°C 32.9°F0.5°C 83% 2.3 mph W3.7 kmh W 3.5 mph5.6 kmh 30.00 in1015.9 mb - 0.00 in0.0 mm 0.00 in0.0 mm
11:25 AM 37.8°F3.2°C 32.8°F0.4°C 82% 3.5 mph W5.6 kmh W 8.1 mph13.0 kmh 30.00 in1015.9 mb - 0.00 in0.0 mm 0.00 in0.0 mm
11:30 AM 38.1°F3.4°C 32.5°F0.3°C 80% 3.5 mph NNW5.6 kmh NNW 4.6 mph7.4 kmh 30.00 in1015.9 mb - 0.00 in0.0 mm 0.00 in0.0 mm
11:35 AM 38.3°F3.5°C 32.7°F0.4°C 80% 6.9 mph W11.1 kmh W 8.1 mph13.0 kmh 29.99 in1015.6 mb - 0.00 in0.0 mm 0.00 in0.0 mm
11:40 AM 38.7°F3.7°C 32.4°F0.2°C 78% 5.8 mph NW9.3 kmh NW 9.2 mph14.8 kmh 29.99 in1015.6 mb - 0.00 in0.0 mm 0.00 in0.0 mm
11:45 AM 38.7°F3.7°C 31.7°F-0.2°C 76% 3.5 mph WNW5.6 kmh WNW 4.6 mph7.4 kmh 29.99 in1015.6 mb - 0.00 in0.0 mm 0.00 in0.0 mm
11:50 AM 39.0°F3.9°C 32.7°F0.4°C 78% 3.5 mph WSW5.6 kmh WSW 3.5 mph5.6 kmh 29.98 in1015.2 mb - 0.00 in0.0 mm 0.00 in0.0 mm
11:55 AM 39.3°F4.1°C 32.4°F0.2°C 76% 3.5 mph W5.6 kmh W 3.5 mph5.6 kmh 29.98 in1015.2 mb - 0.00 in0.0 mm 0.00 in0.0 mm
12:00 PM 39.7°F4.3°C 32.7°F0.4°C 76% 4.6 mph WSW7.4 kmh WSW 4.6 mph7.4 kmh 29.98 in1015.2 mb - 0.00 in0.0 mm 0.00 in0.0 mm
12:10 PM 39.7°F4.3°C 32.1°F0.1°C 74% 3.5 mph NW5.6 kmh NW 4.6 mph7.4 kmh 29.98 in1015.2 mb - 0.00 in0.0 mm 0.00 in0.0 mm
12:15 PM 39.9°F4.4°C 31.6°F-0.2°C 72% 5.8 mph W9.3 kmh W 10.4 mph16.7 kmh 29.97 in1014.9 mb - 0.00 in0.0 mm 0.00 in0.0 mm
12:20 PM 40.1°F4.5°C 32.1°F0.1°C 73% 4.6 mph WSW7.4 kmh WSW 3.5 mph5.6 kmh 29.96 in1014.6 mb - 0.00 in0.0 mm 0.00 in0.0 mm
12:25 PM 40.3°F4.6°C 32.6°F0.3°C 74% 5.8 mph SW9.3 kmh SW 5.8 mph9.3 kmh 29.96 in1014.6 mb - 0.00 in0.0 mm 0.00 in0.0 mm
12:30 PM 40.5°F4.7°C 31.8°F-0.1°C 71% 5.8 mph WSW9.3 kmh WSW 6.9 mph11.1 kmh 29.96 in1014.6 mb - 0.00 in0.0 mm 0.00 in0.0 mm
12:35 PM 40.3°F4.6°C 31.7°F-0.2°C 71% 3.5 mph W5.6 kmh W 4.6 mph7.4 kmh 29.96 in1014.6 mb - 0.00 in0.0 mm 0.00 in0.0 mm
12:40 PM 40.5°F4.7°C 31.4°F-0.3°C 70% 5.8 mph S9.3 kmh S 5.8 mph9.3 kmh 29.96 in1014.6 mb - 0.00 in0.0 mm 0.00 in0.0 mm
12:45 PM 40.6°F4.8°C 31.6°F-0.2°C 70% 4.6 mph WSW7.4 kmh WSW 4.6 mph7.4 kmh 29.96 in1014.6 mb - 0.00 in0.0 mm 0.00 in0.0 mm
12:50 PM 40.5°F4.7°C 31.4°F-0.3°C 70% 4.6 mph NW7.4 kmh NW 5.8 mph9.3 kmh 29.95 in1014.2 mb - 0.00 in0.0 mm 0.00 in0.0 mm
12:55 PM 40.5°F4.7°C 30.7°F-0.7°C 68% 6.9 mph SSW11.1 kmh SSW 9.2 mph14.8 kmh 29.95 in1014.2 mb - 0.00 in0.0 mm 0.00 in0.0 mm
01:00 PM 40.6°F4.8°C 31.3°F-0.4°C 69% 5.8 mph WSW9.3 kmh WSW 9.2 mph14.8 kmh 29.95 in1014.2 mb - 0.00 in0.0 mm 0.00 in0.0 mm
01:10 PM 40.5°F4.7°C 30.4°F-0.9°C 67% 4.6 mph SSW7.4 kmh SSW 6.9 mph11.1 kmh 29.94 in1013.9 mb - 0.00 in0.0 mm 0.00 in0.0 mm
01:15 PM 40.3°F4.6°C 30.6°F-0.8°C 68% 5.8 mph SW9.3 kmh SW 6.9 mph11.1 kmh 29.94 in1013.9 mb - 0.00 in0.0 mm 0.00 in0.0 mm
01:20 PM 40.3°F4.6°C 31.3°F-0.4°C 70% 3.5 mph W5.6 kmh W 4.6 mph7.4 kmh 29.93 in1013.5 mb - 0.00 in0.0 mm 0.00 in0.0 mm
01:25 PM 40.3°F4.6°C 31.3°F-0.4°C 70% 3.5 mph WNW5.6 kmh WNW 5.8 mph9.3 kmh 29.93 in1013.5 mb - 0.00 in0.0 mm 0.00 in0.0 mm
01:30 PM 40.1°F4.5°C 31.1°F-0.5°C 70% 4.6 mph W7.4 kmh W 6.9 mph11.1 kmh 29.93 in1013.5 mb - 0.00 in0.0 mm 0.00 in0.0 mm
01:35 PM 39.7°F4.3°C 30.4°F-0.9°C 69% 4.6 mph SSW7.4 kmh SSW 5.8 mph9.3 kmh 29.93 in1013.5 mb - 0.00 in0.0 mm 0.00 in0.0 mm
01:40 PM 39.7°F4.3°C 30.4°F-0.9°C 69% 6.9 mph WNW11.1 kmh WNW 9.2 mph14.8 kmh 29.93 in1013.5 mb - 0.00 in0.0 mm 0.00 in0.0 mm
01:45 PM 39.6°F4.2°C 30.2°F-1.0°C 69% 4.6 mph S7.4 kmh S 4.6 mph7.4 kmh 29.93 in1013.5 mb - 0.00 in0.0 mm 0.00 in0.0 mm
01:50 PM 39.4°F4.1°C 30.1°F-1.1°C 69% 5.8 mph SW9.3 kmh SW 6.9 mph11.1 kmh 29.93 in1013.5 mb - 0.00 in0.0 mm 0.00 in0.0 mm
01:55 PM 39.4°F4.1°C 30.4°F-0.9°C 70% 5.8 mph SW9.3 kmh SW 6.9 mph11.1 kmh 29.93 in1013.5 mb - 0.00 in0.0 mm 0.00 in0.0 mm
02:00 PM 39.2°F4.0°C 30.2°F-1.0°C 70% 4.6 mph SW7.4 kmh SW 8.1 mph13.0 kmh 29.93 in1013.5 mb - 0.00 in0.0 mm 0.00 in0.0 mm
02:10 PM 39.2°F4.0°C 30.2°F-1.0°C 70% 4.6 mph WSW7.4 kmh WSW 5.8 mph9.3 kmh 29.93 in1013.5 mb - 0.00 in0.0 mm 0.00 in0.0 mm
02:15 PM 39.0°F3.9°C 30.1°F-1.1°C 70% 4.6 mph SSW7.4 kmh SSW 4.6 mph7.4 kmh 29.92 in1013.2 mb - 0.00 in0.0 mm 0.00 in0.0 mm
02:20 PM 38.8°F3.8°C 29.9°F-1.2°C 70% 3.5 mph WSW5.6 kmh WSW 8.1 mph13.0 kmh 29.91 in1012.9 mb - 0.00 in0.0 mm 0.00 in0.0 mm
02:25 PM 38.8°F3.8°C 30.2°F-1.0°C 71% 5.8 mph WNW9.3 kmh WNW 4.6 mph7.4 kmh 29.91 in1012.9 mb - 0.00 in0.0 mm 0.00 in0.0 mm
02:30 PM 38.8°F3.8°C 30.6°F-0.8°C 72% 4.6 mph SW7.4 kmh SW 5.8 mph9.3 kmh 29.91 in1012.9 mb - 0.00 in0.0 mm 0.00 in0.0 mm
02:35 PM 38.8°F3.8°C 30.2°F-1.0°C 71% 4.6 mph SSW7.4 kmh SSW 6.9 mph11.1 kmh 29.91 in1012.9 mb - 0.00 in0.0 mm 0.00 in0.0 mm
02:40 PM 38.8°F3.8°C 30.6°F-0.8°C 72% 4.6 mph SW7.4 kmh SW 4.6 mph7.4 kmh 29.91 in1012.9 mb - 0.00 in0.0 mm 0.00 in0.0 mm
02:45 PM 38.8°F3.8°C 30.6°F-0.8°C 72% 3.5 mph SW5.6 kmh SW 4.6 mph7.4 kmh 29.91 in1012.9 mb - 0.00 in0.0 mm 0.00 in0.0 mm
02:50 PM 38.8°F3.8°C 30.6°F-0.8°C 72% 4.6 mph SW7.4 kmh SW 3.5 mph5.6 kmh 29.90 in1012.5 mb - 0.00 in0.0 mm 0.00 in0.0 mm
02:55 PM 38.8°F3.8°C 30.6°F-0.8°C 72% 4.6 mph WSW7.4 kmh WSW 4.6 mph7.4 kmh 29.90 in1012.5 mb - 0.00 in0.0 mm 0.00 in0.0 mm
03:00 PM 38.8°F3.8°C 30.6°F-0.8°C 72% 4.6 mph WSW7.4 kmh WSW 3.5 mph5.6 kmh 29.90 in1012.5 mb - 0.00 in0.0 mm 0.00 in0.0 mm
03:10 PM 38.8°F3.8°C 30.9°F-0.6°C 73% 4.6 mph SW7.4 kmh SW 5.8 mph9.3 kmh 29.89 in1012.2 mb - 0.00 in0.0 mm 0.00 in0.0 mm
03:15 PM 38.8°F3.8°C 30.9°F-0.6°C 73% 5.8 mph SW9.3 kmh SW 5.8 mph9.3 kmh 29.89 in1012.2 mb - 0.00 in0.0 mm 0.00 in0.0 mm
03:20 PM 38.7°F3.7°C 31.1°F-0.5°C 74% 5.8 mph WSW9.3 kmh WSW 6.9 mph11.1 kmh 29.89 in1012.2 mb - 0.00 in0.0 mm 0.00 in0.0 mm
03:25 PM 38.7°F3.7°C 31.1°F-0.5°C 74% 5.8 mph SW9.3 kmh SW 6.9 mph11.1 kmh 29.89 in1012.2 mb - 0.00 in0.0 mm 0.00 in0.0 mm
03:30 PM 38.6°F3.7°C 31.0°F-0.6°C 74% 6.9 mph SW11.1 kmh SW 6.9 mph11.1 kmh 29.89 in1012.2 mb - 0.00 in0.0 mm 0.00 in0.0 mm
03:35 PM 38.5°F3.6°C 30.9°F-0.6°C 74% 5.8 mph WSW9.3 kmh WSW 6.9 mph11.1 kmh 29.89 in1012.2 mb - 0.00 in0.0 mm 0.00 in0.0 mm
03:40 PM 38.3°F3.5°C 30.7°F-0.7°C 74% 5.8 mph WSW9.3 kmh WSW 6.9 mph11.1 kmh 29.89 in1012.2 mb - 0.00 in0.0 mm 0.00 in0.0 mm
03:45 PM 38.3°F3.5°C 30.7°F-0.7°C 74% 5.8 mph SW9.3 kmh SW 5.8 mph9.3 kmh 29.88 in1011.9 mb - 0.00 in0.0 mm 0.00 in0.0 mm
03:50 PM 38.2°F3.4°C 30.9°F-0.6°C 75% 5.8 mph SW9.3 kmh SW 9.2 mph14.8 kmh 29.88 in1011.9 mb - 0.00 in0.0 mm 0.00 in0.0 mm
03:55 PM 38.1°F3.4°C 30.9°F-0.6°C 75% 4.6 mph SW7.4 kmh SW 5.8 mph9.3 kmh 29.88 in1011.9 mb - 0.00 in0.0 mm 0.00 in0.0 mm
04:00 PM 37.9°F3.3°C 30.7°F-0.7°C 75% 4.6 mph SSW7.4 kmh SSW 4.6 mph7.4 kmh 29.87 in1011.5 mb - 0.00 in0.0 mm 0.00 in0.0 mm
04:10 PM 37.8°F3.2°C 30.9°F-0.6°C 76% 5.8 mph WSW9.3 kmh WSW 5.8 mph9.3 kmh 29.86 in1011.2 mb - 0.00 in0.0 mm 0.00 in0.0 mm
04:15 PM 37.8°F3.2°C 30.9°F-0.6°C 76% 5.8 mph SSW9.3 kmh SSW 9.2 mph14.8 kmh 29.86 in1011.2 mb - 0.00 in0.0 mm 0.00 in0.0 mm
04:20 PM 37.8°F3.2°C 30.9°F-0.6°C 76% 6.9 mph SSW11.1 kmh SSW 8.1 mph13.0 kmh 29.86 in1011.2 mb - 0.00 in0.0 mm 0.00 in0.0 mm
04:25 PM 37.6°F3.1°C 31.0°F-0.6°C 77% 4.6 mph SSW7.4 kmh SSW 5.8 mph9.3 kmh 29.86 in1011.2 mb - 0.00 in0.0 mm 0.00 in0.0 mm
04:30 PM 37.6°F3.1°C 31.3°F-0.4°C 78% 5.8 mph SW9.3 kmh SW 6.9 mph11.1 kmh 29.86 in1011.2 mb - 0.00 in0.0 mm 0.00 in0.0 mm
04:35 PM 37.6°F3.1°C 31.3°F-0.4°C 78% 4.6 mph SW7.4 kmh SW 4.6 mph7.4 kmh 29.86 in1011.2 mb - 0.00 in0.0 mm 0.00 in0.0 mm
04:40 PM 37.4°F3.0°C 31.2°F-0.4°C 78% 4.6 mph WSW7.4 kmh WSW 4.6 mph7.4 kmh 29.86 in1011.2 mb - 0.00 in0.0 mm 0.00 in0.0 mm
04:45 PM 37.4°F3.0°C 31.2°F-0.4°C 78% 5.8 mph W9.3 kmh W 5.8 mph9.3 kmh 29.85 in1010.8 mb - 0.00 in0.0 mm 0.00 in0.0 mm
04:50 PM 37.4°F3.0°C 31.5°F-0.3°C 79% 4.6 mph WSW7.4 kmh WSW 6.9 mph11.1 kmh 29.85 in1010.8 mb - 0.00 in0.0 mm 0.00 in0.0 mm
04:55 PM 37.4°F3.0°C 31.5°F-0.3°C 79% 4.6 mph SW7.4 kmh SW 6.9 mph11.1 kmh 29.85 in1010.8 mb - 0.00 in0.0 mm 0.00 in0.0 mm
05:00 PM 37.4°F3.0°C 31.5°F-0.3°C 79% 3.5 mph SSW5.6 kmh SSW 3.5 mph5.6 kmh 29.85 in1010.8 mb - 0.00 in0.0 mm 0.00 in0.0 mm
05:10 PM 37.2°F2.9°C 31.6°F-0.2°C 80% 5.8 mph SW9.3 kmh SW 5.8 mph9.3 kmh 29.85 in1010.8 mb - 0.00 in0.0 mm 0.00 in0.0 mm
05:15 PM 37.0°F2.8°C 31.4°F-0.3°C 80% 4.6 mph SW7.4 kmh SW 6.9 mph11.1 kmh 29.85 in1010.8 mb - 0.00 in0.0 mm 0.00 in0.0 mm
05:20 PM 37.0°F2.8°C 31.8°F-0.1°C 81% 4.6 mph SW7.4 kmh SW 6.9 mph11.1 kmh 29.84 in1010.5 mb - 0.00 in0.0 mm 0.00 in0.0 mm
05:25 PM 37.0°F2.8°C 31.8°F-0.1°C 81% 4.6 mph W7.4 kmh W 5.8 mph9.3 kmh 29.84 in1010.5 mb - 0.00 in0.0 mm 0.00 in0.0 mm
05:30 PM 37.0°F2.8°C 31.7°F-0.2°C 81% 4.6 mph WSW7.4 kmh WSW 6.9 mph11.1 kmh 29.84 in1010.5 mb - 0.00 in0.0 mm 0.00 in0.0 mm
05:35 PM 36.9°F2.7°C 31.6°F-0.2°C 81% 4.6 mph SSW7.4 kmh SSW 5.8 mph9.3 kmh 29.84 in1010.5 mb - 0.00 in0.0 mm 0.00 in0.0 mm
05:40 PM 36.9°F2.7°C 31.6°F-0.2°C 81% 3.5 mph SW5.6 kmh SW 5.8 mph9.3 kmh 29.84 in1010.5 mb - 0.00 in0.0 mm 0.00 in0.0 mm
05:45 PM 36.9°F2.7°C 31.6°F-0.2°C 81% 3.5 mph SW5.6 kmh SW 5.8 mph9.3 kmh 29.84 in1010.5 mb - 0.00 in0.0 mm 0.00 in0.0 mm
05:50 PM 36.7°F2.6°C 31.8°F-0.1°C 82% 4.6 mph WSW7.4 kmh WSW 5.8 mph9.3 kmh 29.83 in1010.2 mb - 0.00 in0.0 mm 0.00 in0.0 mm
05:55 PM 36.7°F2.6°C 31.4°F-0.3°C 81% 4.6 mph SW7.4 kmh SW 6.9 mph11.1 kmh 29.83 in1010.2 mb - 0.00 in0.0 mm 0.00 in0.0 mm
06:00 PM 36.7°F2.6°C 31.7°F-0.2°C 82% 4.6 mph SSW7.4 kmh SSW 5.8 mph9.3 kmh 29.83 in1010.2 mb - 0.00 in0.0 mm 0.00 in0.0 mm
06:10 PM 36.7°F2.6°C 31.7°F-0.2°C 82% 3.5 mph SW5.6 kmh SW 4.6 mph7.4 kmh 29.83 in1010.2 mb - 0.00 in0.0 mm 0.00 in0.0 mm
06:15 PM 36.5°F2.5°C 31.5°F-0.3°C 82% 5.8 mph SSW9.3 kmh SSW 6.9 mph11.1 kmh 29.83 in1010.2 mb - 0.00 in0.0 mm 0.00 in0.0 mm
06:20 PM 36.5°F2.5°C 31.5°F-0.3°C 82% 3.5 mph SSW5.6 kmh SSW 3.5 mph5.6 kmh 29.83 in1010.2 mb - 0.00 in0.0 mm 0.00 in0.0 mm
06:25 PM 36.5°F2.5°C 31.5°F-0.3°C 82% 4.6 mph SW7.4 kmh SW 4.6 mph7.4 kmh 29.83 in1010.2 mb - 0.00 in0.0 mm 0.00 in0.0 mm
06:30 PM 36.5°F2.5°C 31.5°F-0.3°C 82% 4.6 mph WSW7.4 kmh WSW 5.8 mph9.3 kmh 29.83 in1010.2 mb - 0.00 in0.0 mm 0.00 in0.0 mm
06:35 PM 36.3°F2.4°C 31.4°F-0.3°C 82% 5.8 mph SSW9.3 kmh SSW 5.8 mph9.3 kmh 29.82 in1009.8 mb - 0.00 in0.0 mm 0.00 in0.0 mm
06:40 PM 36.3°F2.4°C 31.7°F-0.2°C 83% 4.6 mph SSW7.4 kmh SSW 5.8 mph9.3 kmh 29.82 in1009.8 mb - 0.00 in0.0 mm 0.00 in0.0 mm
06:45 PM 36.3°F2.4°C 31.7°F-0.2°C 83% 4.6 mph SW7.4 kmh SW 5.8 mph9.3 kmh 29.82 in1009.8 mb - 0.00 in0.0 mm 0.00 in0.0 mm
06:50 PM 36.3°F2.4°C 31.7°F-0.2°C 83% 4.6 mph SW7.4 kmh SW 5.8 mph9.3 kmh 29.82 in1009.8 mb - 0.00 in0.0 mm 0.00 in0.0 mm
06:55 PM 36.3°F2.4°C 31.7°F-0.2°C 83% 3.5 mph SW5.6 kmh SW 5.8 mph9.3 kmh 29.82 in1009.8 mb - 0.00 in0.0 mm 0.00 in0.0 mm
07:00 PM 36.3°F2.4°C 31.7°F-0.2°C 83% 4.6 mph SSW7.4 kmh SSW 5.8 mph9.3 kmh 29.82 in1009.8 mb - 0.00 in0.0 mm 0.00 in0.0 mm
07:10 PM 36.1°F2.3°C 31.5°F-0.3°C 83% 4.6 mph WSW7.4 kmh WSW 4.6 mph7.4 kmh 29.82 in1009.8 mb - 0.00 in0.0 mm 0.00 in0.0 mm
07:15 PM 36.1°F2.3°C 31.8°F-0.1°C 84% 3.5 mph WSW5.6 kmh WSW 3.5 mph5.6 kmh 29.81 in1009.5 mb - 0.00 in0.0 mm 0.00 in0.0 mm
07:20 PM 36.1°F2.3°C 31.8°F-0.1°C 84% 4.6 mph SW7.4 kmh SW 5.8 mph9.3 kmh 29.81 in1009.5 mb - 0.00 in0.0 mm 0.00 in0.0 mm
07:25 PM 36.1°F2.3°C 31.8°F-0.1°C 84% 4.6 mph SW7.4 kmh SW 5.8 mph9.3 kmh 29.81 in1009.5 mb - 0.00 in0.0 mm 0.00 in0.0 mm
07:30 PM 36.1°F2.3°C 31.8°F-0.1°C 84% 4.6 mph SW7.4 kmh SW 8.1 mph13.0 kmh 29.81 in1009.5 mb - 0.00 in0.0 mm 0.00 in0.0 mm
07:35 PM 36.1°F2.3°C 31.8°F-0.1°C 84% 4.6 mph SW7.4 kmh SW 5.8 mph9.3 kmh 29.80 in1009.1 mb - 0.00 in0.0 mm 0.00 in0.0 mm
07:40 PM 36.1°F2.3°C 31.5°F-0.3°C 83% 4.6 mph SSW7.4 kmh SSW 6.9 mph11.1 kmh 29.80 in1009.1 mb - 0.00 in0.0 mm 0.00 in0.0 mm
07:45 PM 36.1°F2.3°C 31.5°F-0.3°C 83% 5.8 mph SW9.3 kmh SW 4.6 mph7.4 kmh 29.80 in1009.1 mb - 0.00 in0.0 mm 0.00 in0.0 mm
07:50 PM 36.1°F2.3°C 31.5°F-0.3°C 83% 5.8 mph SW9.3 kmh SW 5.8 mph9.3 kmh 29.79 in1008.8 mb - 0.00 in0.0 mm 0.00 in0.0 mm
07:55 PM 36.0°F2.2°C 31.3°F-0.4°C 83% 6.9 mph SSW11.1 kmh SSW 8.1 mph13.0 kmh 29.79 in1008.8 mb - 0.00 in0.0 mm 0.00 in0.0 mm
08:00 PM 36.0°F2.2°C 31.0°F-0.6°C 82% 6.9 mph SSW11.1 kmh SSW 9.2 mph14.8 kmh 29.79 in1008.8 mb - 0.00 in0.0 mm 0.00 in0.0 mm
08:10 PM 36.0°F2.2°C 31.0°F-0.6°C 82% 6.9 mph SSW11.1 kmh SSW 8.1 mph13.0 kmh 29.78 in1008.5 mb - 0.00 in0.0 mm 0.00 in0.0 mm
08:15 PM 36.0°F2.2°C 31.0°F-0.6°C 82% 6.9 mph SW11.1 kmh SW 8.1 mph13.0 kmh 29.78 in1008.5 mb - 0.00 in0.0 mm 0.00 in0.0 mm
08:20 PM 35.9°F2.2°C 30.9°F-0.6°C 82% 5.8 mph SW9.3 kmh SW 8.1 mph13.0 kmh 29.76 in1007.8 mb - 0.00 in0.0 mm 0.00 in0.0 mm
08:25 PM 35.8°F2.1°C 30.8°F-0.7°C 82% 5.8 mph WSW9.3 kmh WSW 5.8 mph9.3 kmh 29.76 in1007.8 mb - 0.00 in0.0 mm 0.00 in0.0 mm
08:30 PM 35.8°F2.1°C 30.8°F-0.7°C 82% 5.8 mph SSW9.3 kmh SSW 5.8 mph9.3 kmh 29.76 in1007.8 mb - 0.00 in0.0 mm 0.00 in0.0 mm
08:35 PM 35.8°F2.1°C 30.8°F-0.7°C 82% 4.6 mph SW7.4 kmh SW 4.6 mph7.4 kmh 29.76 in1007.8 mb - 0.00 in0.0 mm 0.00 in0.0 mm
08:40 PM 35.6°F2.0°C 30.6°F-0.8°C 82% 4.6 mph WSW7.4 kmh WSW 4.6 mph7.4 kmh 29.76 in1007.8 mb - 0.00 in0.0 mm 0.00 in0.0 mm
08:45 PM 35.6°F2.0°C 30.6°F-0.8°C 82% 5.8 mph SW9.3 kmh SW 6.9 mph11.1 kmh 29.77 in1008.1 mb - 0.00 in0.0 mm 0.00 in0.0 mm
08:50 PM 35.6°F2.0°C 30.6°F-0.8°C 82% 4.6 mph WSW7.4 kmh WSW 5.8 mph9.3 kmh 29.77 in1008.1 mb - 0.00 in0.0 mm 0.00 in0.0 mm
08:55 PM 35.6°F2.0°C 30.6°F-0.8°C 82% 3.5 mph SW5.6 kmh SW 4.6 mph7.4 kmh 29.77 in1008.1 mb - 0.00 in0.0 mm 0.00 in0.0 mm
09:00 PM 35.6°F2.0°C 30.6°F-0.8°C 82% 4.6 mph WSW7.4 kmh WSW 4.6 mph7.4 kmh 29.77 in1008.1 mb - 0.00 in0.0 mm 0.00 in0.0 mm
09:10 PM 35.6°F2.0°C 30.6°F-0.8°C 82% 5.8 mph SSW9.3 kmh SSW 5.8 mph9.3 kmh 29.77 in1008.1 mb - 0.00 in0.0 mm 0.00 in0.0 mm
09:15 PM 35.6°F2.0°C 30.6°F-0.8°C 82% 4.6 mph SSW7.4 kmh SSW 5.8 mph9.3 kmh 29.76 in1007.8 mb - 0.00 in0.0 mm 0.00 in0.0 mm
09:20 PM 35.6°F2.0°C 30.6°F-0.8°C 82% 4.6 mph SSW7.4 kmh SSW 5.8 mph9.3 kmh 29.76 in1007.8 mb - 0.00 in0.0 mm 0.00 in0.0 mm
09:25 PM 35.6°F2.0°C 30.6°F-0.8°C 82% 4.6 mph SW7.4 kmh SW 5.8 mph9.3 kmh 29.76 in1007.8 mb - 0.00 in0.0 mm 0.00 in0.0 mm
09:30 PM 35.6°F2.0°C 30.3°F-0.9°C 81% 4.6 mph SW7.4 kmh SW 5.8 mph9.3 kmh 29.76 in1007.8 mb - 0.00 in0.0 mm 0.00 in0.0 mm
09:35 PM 35.8°F2.1°C 30.5°F-0.8°C 81% 6.9 mph WSW11.1 kmh WSW 6.9 mph11.1 kmh 29.75 in1007.5 mb - 0.00 in0.0 mm 0.00 in0.0 mm
09:40 PM 35.8°F2.1°C 30.2°F-1.0°C 80% 4.6 mph SW7.4 kmh SW 4.6 mph7.4 kmh 29.75 in1007.5 mb - 0.00 in0.0 mm 0.00 in0.0 mm
09:45 PM 35.6°F2.0°C 30.1°F-1.1°C 80% 4.6 mph WSW7.4 kmh WSW 5.8 mph9.3 kmh 29.75 in1007.5 mb - 0.00 in0.0 mm 0.00 in0.0 mm
09:50 PM 35.6°F2.0°C 30.0°F-1.1°C 80% 4.6 mph SSW7.4 kmh SSW 4.6 mph7.4 kmh 29.74 in1007.1 mb - 0.00 in0.0 mm 0.00 in0.0 mm
09:55 PM 35.6°F2.0°C 30.0°F-1.1°C 80% 5.8 mph SW9.3 kmh SW 6.9 mph11.1 kmh 29.74 in1007.1 mb - 0.00 in0.0 mm 0.00 in0.0 mm
10:00 PM 35.6°F2.0°C 30.0°F-1.1°C 80% 4.6 mph WSW7.4 kmh WSW 6.9 mph11.1 kmh 29.74 in1007.1 mb - 0.00 in0.0 mm 0.00 in0.0 mm
10:10 PM 35.6°F2.0°C 30.3°F-0.9°C 81% 4.6 mph SW7.4 kmh SW 5.8 mph9.3 kmh 29.74 in1007.1 mb - 0.00 in0.0 mm 0.00 in0.0 mm
10:15 PM 35.4°F1.9°C 30.2°F-1.0°C 81% 4.6 mph WSW7.4 kmh WSW 4.6 mph7.4 kmh 29.73 in1006.8 mb - 0.00 in0.0 mm 0.00 in0.0 mm
10:20 PM 35.4°F1.9°C 30.2°F-1.0°C 81% 5.8 mph SW9.3 kmh SW 6.9 mph11.1 kmh 29.73 in1006.8 mb - 0.00 in0.0 mm 0.00 in0.0 mm
10:25 PM 35.2°F1.8°C 30.3°F-0.9°C 82% 4.6 mph WSW7.4 kmh WSW 5.8 mph9.3 kmh 29.73 in1006.8 mb - 0.00 in0.0 mm 0.00 in0.0 mm
10:30 PM 35.2°F1.8°C 30.3°F-0.9°C 82% 4.6 mph SW7.4 kmh SW 8.1 mph13.0 kmh 29.72 in1006.4 mb - 0.00 in0.0 mm 0.00 in0.0 mm
10:35 PM 35.2°F1.8°C 30.3°F-0.9°C 82% 5.8 mph SSW9.3 kmh SSW 5.8 mph9.3 kmh 29.72 in1006.4 mb - 0.00 in0.0 mm 0.00 in0.0 mm
10:40 PM 35.1°F1.7°C 30.4°F-0.9°C 83% 4.6 mph WSW7.4 kmh WSW 8.1 mph13.0 kmh 29.72 in1006.4 mb - 0.00 in0.0 mm 0.00 in0.0 mm
10:45 PM 35.1°F1.7°C 30.4°F-0.9°C 83% 4.6 mph SW7.4 kmh SW 5.8 mph9.3 kmh 29.72 in1006.4 mb - 0.00 in0.0 mm 0.00 in0.0 mm
10:50 PM 35.1°F1.7°C 30.4°F-0.9°C 83% 4.6 mph SW7.4 kmh SW 5.8 mph9.3 kmh 29.72 in1006.4 mb - 0.00 in0.0 mm 0.00 in0.0 mm
10:55 PM 35.1°F1.7°C 30.4°F-0.9°C 83% 3.5 mph SW5.6 kmh SW 3.5 mph5.6 kmh 29.72 in1006.4 mb - 0.00 in0.0 mm 0.00 in0.0 mm
11:00 PM 35.1°F1.7°C 30.4°F-0.9°C 83% 4.6 mph SW7.4 kmh SW 4.6 mph7.4 kmh 29.71 in1006.1 mb - 0.00 in0.0 mm 0.00 in0.0 mm
11:10 PM 35.2°F1.8°C 30.3°F-0.9°C 82% 5.8 mph WSW9.3 kmh WSW 5.8 mph9.3 kmh 29.71 in1006.1 mb - 0.00 in0.0 mm 0.00 in0.0 mm
11:15 PM 35.1°F1.7°C 30.4°F-0.9°C 83% 5.8 mph WSW9.3 kmh WSW 5.8 mph9.3 kmh 29.70 in1005.8 mb - 0.00 in0.0 mm 0.00 in0.0 mm
11:20 PM 35.1°F1.7°C 30.4°F-0.9°C 83% 5.8 mph W9.3 kmh W 5.8 mph9.3 kmh 29.70 in1005.8 mb - 0.02 in0.5 mm 0.02 in0.5 mm
11:25 PM 35.1°F1.7°C 30.4°F-0.9°C 83% 2.3 mph WSW3.7 kmh WSW 4.6 mph7.4 kmh 29.70 in1005.8 mb - 0.02 in0.5 mm 0.02 in0.5 mm
11:30 PM 35.1°F1.7°C 30.4°F-0.9°C 83% 5.8 mph WSW9.3 kmh WSW 5.8 mph9.3 kmh 29.69 in1005.4 mb - 0.02 in0.5 mm 0.02 in0.5 mm
11:35 PM 35.1°F1.7°C 30.4°F-0.9°C 83% 5.8 mph SW9.3 kmh SW 5.8 mph9.3 kmh 29.69 in1005.4 mb - 0.02 in0.5 mm 0.02 in0.5 mm
11:40 PM 35.1°F1.7°C 30.4°F-0.9°C 83% 4.6 mph SW7.4 kmh SW 5.8 mph9.3 kmh 29.69 in1005.4 mb - 0.02 in0.5 mm 0.02 in0.5 mm
11:45 PM 35.1°F1.7°C 30.4°F-0.9°C 83% 6.9 mph WSW11.1 kmh WSW 5.8 mph9.3 kmh 29.69 in1005.4 mb - 0.02 in0.5 mm 0.02 in0.5 mm
11:50 PM 35.1°F1.7°C 30.5°F-0.8°C 83% 6.9 mph WSW11.1 kmh WSW 10.4 mph16.7 kmh 29.68 in1005.1 mb - 0.02 in0.5 mm 0.02 in0.5 mm
11:55 PM 35.1°F1.7°C 30.4°F-0.9°C 83% 5.8 mph SW9.3 kmh SW 5.8 mph9.3 kmh 29.68 in1005.1 mb - 0.02 in0.5 mm 0.02 in0.5 mm